Lagrange, Wyoming
Current Conditions -  °F | °C
As of 6:53 PM on Saturday 25 Oct 2014 (Local Time) from KTOR Reporting Station
Clear Clear  
Wind Chill: 62°   Ceiling: Unl
Heat Index: 62°   Visibility: 10mi
Dew Point: 35°   Wind: 10mph
Humidity: 37%   Direction: 110°ESE
Pressure: 29.97"   Gusts: NA
Location:  41.63°N, 104.35°W
Report Text: KTOR 260053Z AUTO 11009KT 10SM CLR 17/02 A2997 RMK AO2 SLP132 T01670017
Loading
Personal Weather Stations






























Interactive Weather Map
Tropical Storm Tracking
New forecast layout! Learn more

10-Day Weather Forecast

Advertisements
Track Severe Weather on mobile